Time;durP1;ratioP1;P1;durP2;ratioP2;P2;SDS_P1;SDS_P2;PMS_P1;PMS_P2;Temp;Humidity;BMP_temperature;BMP_pressure;BME280_temperature;BME280_humidity;BME280_pressure;Samples;Min_cycle;Max_cycle;Signal;HPM_P1;HPM_P2
2023/05/06 00:00:27;;;;;;;9.15;5.80;;;;;;;12.02;100.00;101526.28;5092083;28;20485;-80
2023/05/06 00:02:52;;;;;;;9.38;5.75;;;;;;;11.99;100.00;101533.47;5078652;28;20119;-80
2023/05/06 00:05:18;;;;;;;8.50;5.97;;;;;;;11.93;100.00;101529.34;5101964;28;20035;-80
2023/05/06 00:07:45;;;;;;;11.13;6.60;;;;;;;11.97;100.00;101527.41;5081054;28;20023;-80
2023/05/06 00:10:11;;;;;;;9.05;5.85;;;;;;;11.95;100.00;101533.41;5080880;28;20063;-80
2023/05/06 00:12:36;;;;;;;11.00;6.28;;;;;;;11.95;100.00;101526.97;5096067;28;20081;-80
2023/05/06 00:15:02;;;;;;;7.28;5.22;;;;;;;11.93;100.00;101524.56;5072796;28;20484;-80
2023/05/06 00:17:28;;;;;;;9.20;5.32;;;;;;;11.90;100.00;101536.50;5075224;28;20028;-80
2023/05/06 00:19:54;;;;;;;10.18;5.78;;;;;;;11.90;100.00;101528.09;5105042;28;20385;-80
2023/05/06 00:22:20;;;;;;;10.30;6.22;;;;;;;11.92;100.00;101528.53;5092101;28;20024;-80
2023/05/06 00:24:46;;;;;;;10.18;5.07;;;;;;;11.90;100.00;101522.47;5082970;28;20514;-80
2023/05/06 00:27:11;;;;;;;5.90;4.85;;;;;;;11.87;100.00;101519.56;5100504;28;20558;-80
2023/05/06 00:29:36;;;;;;;8.00;5.47;;;;;;;11.88;100.00;101526.81;5079323;28;20023;-80
2023/05/06 00:32:02;;;;;;;8.93;5.15;;;;;;;11.86;100.00;101527.19;5095294;28;20150;-80
2023/05/06 00:34:27;;;;;;;6.68;4.97;;;;;;;11.85;100.00;101525.56;5077287;28;20035;-80
2023/05/06 00:36:53;;;;;;;8.85;5.32;;;;;;;11.83;100.00;101519.53;5104390;28;20043;-80
2023/05/06 00:39:18;;;;;;;11.10;6.50;;;;;;;11.87;100.00;101527.97;5094565;27;20027;-80
2023/05/06 00:41:43;;;;;;;8.13;5.82;;;;;;;11.84;100.00;101525.94;5099588;28;20032;-78
2023/05/06 00:44:09;;;;;;;10.13;6.00;;;;;;;11.87;100.00;101519.56;5100326;28;20080;-80
2023/05/06 00:46:35;;;;;;;7.90;5.32;;;;;;;11.87;100.00;101520.41;5078664;28;20034;-80
2023/05/06 00:49:01;;;;;;;8.27;6.25;;;;;;;11.86;100.00;101524.38;5086505;28;20034;-80
2023/05/06 00:51:27;;;;;;;8.70;5.65;;;;;;;11.79;100.00;101513.03;5104370;28;20024;-80
2023/05/06 00:53:52;;;;;;;9.82;6.25;;;;;;;11.82;100.00;101523.50;5101971;28;20083;-80
2023/05/06 00:56:18;;;;;;;8.25;5.05;;;;;;;11.77;100.00;101510.59;5084026;28;20032;-80
2023/05/06 00:58:44;;;;;;;8.95;5.75;;;;;;;11.77;100.00;101515.38;5086661;28;21425;-81
2023/05/06 01:01:10;;;;;;;11.20;5.93;;;;;;;11.77;100.00;101513.38;5083096;28;20111;-81
2023/05/06 01:03:36;;;;;;;9.95;5.68;;;;;;;11.79;100.00;101527.06;5076520;28;20122;-81
2023/05/06 01:06:08;;;;;;;7.95;5.28;;;;;;;11.80;100.00;101523.88;5081683;28;20085;-80
2023/05/06 01:08:45;;;;;;;9.77;6.45;;;;;;;11.82;100.00;101522.69;5097054;28;20564;-81
2023/05/06 01:11:18;;;;;;;7.72;5.63;;;;;;;11.80;100.00;101525.84;5083242;28;20035;-80
2023/05/06 01:14:05;;;;;;;7.55;5.03;;;;;;;11.76;100.00;101520.19;5098907;28;20114;-81
2023/05/06 01:16:35;;;;;;;8.18;5.13;;;;;;;11.75;100.00;101524.16;5082200;28;20118;-80
2023/05/06 01:19:02;;;;;;;9.57;5.65;;;;;;;11.77;100.00;101521.00;5085778;28;20383;-81
2023/05/06 01:21:33;;;;;;;8.73;5.85;;;;;;;11.73;100.00;101515.31;5103770;28;20046;-81
2023/05/06 01:23:59;;;;;;;9.52;5.63;;;;;;;11.74;100.00;101510.50;5100584;28;20023;-81
2023/05/06 01:26:26;;;;;;;10.25;6.30;;;;;;;11.72;100.00;101513.69;5083114;28;20031;-81
2023/05/06 01:28:52;;;;;;;10.85;5.90;;;;;;;11.79;100.00;101519.44;5083842;28;20032;-81
2023/05/06 01:31:24;;;;;;;9.88;6.28;;;;;;;11.70;100.00;101516.06;5099453;28;20457;-80
2023/05/06 01:33:52;;;;;;;8.90;6.18;;;;;;;11.75;100.00;101518.56;5099003;28;20492;-81
2023/05/06 01:36:52;;;;;;;10.55;6.90;;;;;;;11.71;100.00;101502.84;5095025;27;20082;-80
2023/05/06 01:39:24;;;;;;;9.52;5.82;;;;;;;11.72;100.00;101518.47;5085647;28;20040;-80
2023/05/06 01:41:50;;;;;;;9.90;5.78;;;;;;;11.73;100.00;101515.31;5080148;28;20053;-81
2023/05/06 01:44:20;;;;;;;9.90;6.40;;;;;;;11.76;100.00;101516.56;5101114;28;20080;-81
2023/05/06 01:46:48;;;;;;;8.38;5.68;;;;;;;11.70;100.00;101510.47;5096637;27;20051;-81
2023/05/06 01:49:15;;;;;;;10.80;6.57;;;;;;;11.70;100.00;101515.22;5099964;28;20035;-81
2023/05/06 01:51:46;;;;;;;9.07;6.10;;;;;;;11.69;100.00;101514.44;5103184;28;20080;-81
2023/05/06 01:54:13;;;;;;;10.57;6.65;;;;;;;11.64;100.00;101508.28;5079434;28;20396;-81
2023/05/06 01:56:38;;;;;;;11.15;6.50;;;;;;;11.69;100.00;101525.66;5078663;28;20090;-81
2023/05/06 01:59:06;;;;;;;11.57;6.57;;;;;;;11.59;100.00;101515.00;5080521;28;20036;-81
2023/05/06 02:01:32;;;;;;;10.35;6.80;;;;;;;11.57;100.00;101518.22;5081448;28;20452;-81
2023/05/06 02:03:57;;;;;;;10.95;5.80;;;;;;;11.54;100.00;101507.72;5084863;28;20039;-81
2023/05/06 02:06:22;;;;;;;11.15;7.07;;;;;;;11.62;100.00;101511.50;5096584;28;20052;-81
2023/05/06 02:08:48;;;;;;;9.73;6.00;;;;;;;11.68;100.00;101518.44;5097881;28;20031;-80
2023/05/06 02:11:14;;;;;;;10.43;7.70;;;;;;;11.67;100.00;101524.41;5081072;28;20060;-80
2023/05/06 02:13:39;;;;;;;8.93;6.72;;;;;;;11.64;100.00;101513.91;5078438;28;20024;-80
2023/05/06 02:16:04;;;;;;;15.57;7.72;;;;;;;11.63;100.00;101509.50;5090324;28;20048;-81
2023/05/06 02:18:30;;;;;;;8.82;6.47;;;;;;;11.59;100.00;101504.63;5082237;28;20033;-81
2023/05/06 02:20:55;;;;;;;13.15;7.28;;;;;;;11.60;100.00;101513.84;5099177;28;20054;-81
2023/05/06 02:23:21;;;;;;;11.93;7.28;;;;;;;11.59;100.00;101510.25;5096394;28;20131;-81
2023/05/06 02:25:46;;;;;;;11.13;6.72;;;;;;;11.65;100.00;101521.94;5076597;28;20118;-81
2023/05/06 02:28:11;;;;;;;11.75;7.97;;;;;;;11.63;100.00;101517.91;5078493;28;20031;-81
2023/05/06 02:30:37;;;;;;;11.02;7.03;;;;;;;11.57;100.00;101512.59;5075774;28;20057;-80
2023/05/06 02:33:02;;;;;;;10.20;6.78;;;;;;;11.60;100.00;101520.25;5079287;28;20093;-80
2023/05/06 02:35:27;;;;;;;9.95;7.00;;;;;;;11.59;100.00;101513.03;5098260;28;20031;-80
2023/05/06 02:37:53;;;;;;;10.93;7.20;;;;;;;11.59;100.00;101515.00;5076447;28;20052;-80
2023/05/06 02:40:18;;;;;;;13.10;7.50;;;;;;;11.57;100.00;101518.22;5074692;28;20055;-80
2023/05/06 02:42:47;;;;;;;16.08;7.47;;;;;;;11.57;100.00;101511.78;5070842;28;20032;-80
2023/05/06 02:45:12;;;;;;;12.20;8.23;;;;;;;11.58;100.00;101503.00;5075798;28;20039;-81
2023/05/06 02:47:37;;;;;;;13.73;8.27;;;;;;;11.49;100.00;101510.84;5077417;28;20028;-80
2023/05/06 02:50:03;;;;;;;13.65;7.93;;;;;;;11.51;100.00;101507.63;5075708;28;20111;-81
2023/05/06 02:52:28;;;;;;;14.90;9.02;;;;;;;11.52;100.00;101504.47;5076878;28;20124;-81
2023/05/06 02:54:53;;;;;;;13.73;9.50;;;;;;;11.51;100.00;101508.47;5073195;28;20401;-80
2023/05/06 02:57:19;;;;;;;17.65;9.77;;;;;;;11.43;100.00;101500.28;5076190;28;20062;-80
2023/05/06 02:59:44;;;;;;;14.55;8.75;;;;;;;11.46;100.00;101505.94;5072249;28;20389;-80
2023/05/06 03:02:10;;;;;;;16.10;10.48;;;;;;;11.46;100.00;101503.16;5076370;28;20389;-80
2023/05/06 03:04:35;;;;;;;16.17;8.90;;;;;;;11.43;100.00;101503.91;5076222;28;20115;-80
2023/05/06 03:07:00;;;;;;;13.70;8.18;;;;;;;11.43;100.00;101508.69;5075314;28;20060;-81
2023/05/06 03:09:26;;;;;;;14.80;8.93;;;;;;;11.38;100.00;101505.00;5071816;28;20030;-81
2023/05/06 03:11:51;;;;;;;14.63;9.20;;;;;;;11.38;100.00;101509.78;5072700;28;20036;-80
2023/05/06 03:14:16;;;;;;;17.95;9.55;;;;;;;11.39;100.00;101506.63;5080773;28;20679;-80
2023/05/06 03:16:42;;;;;;;15.52;10.15;;;;;;;11.35;100.00;101504.91;5075347;28;20452;-81
2023/05/06 03:19:07;;;;;;;15.32;8.82;;;;;;;11.35;100.00;101499.31;5082389;28;20032;-81
2023/05/06 03:21:32;;;;;;;17.42;10.93;;;;;;;11.31;100.00;101495.63;5077973;28;20074;-80
2023/05/06 03:23:58;;;;;;;15.35;10.15;;;;;;;11.34;100.00;101498.50;5077672;28;20068;-80
2023/05/06 03:26:24;;;;;;;16.30;11.15;;;;;;;11.30;100.00;101488.38;5079924;28;20042;-80
2023/05/06 03:28:49;;;;;;;16.23;9.68;;;;;;;11.25;100.00;101489.50;5079646;28;20396;-80
2023/05/06 03:31:15;;;;;;;15.65;10.05;;;;;;;11.23;100.00;101496.66;5079669;28;20028;-80
2023/05/06 03:33:40;;;;;;;16.10;9.63;;;;;;;11.22;100.00;101497.84;5082284;28;20031;-81
2023/05/06 03:36:06;;;;;;;13.50;9.63;;;;;;;11.22;100.00;101500.66;5085310;28;20028;-81
2023/05/06 03:38:31;;;;;;;15.55;9.18;;;;;;;11.20;100.00;101509.41;5086042;28;20497;-80
2023/05/06 03:40:56;;;;;;;18.08;10.00;;;;;;;11.18;100.00;101506.16;5083468;28;20481;-81
2023/05/06 03:43:22;;;;;;;16.75;10.00;;;;;;;11.17;100.00;101504.53;5102270;28;20024;-81
2023/05/06 03:45:47;;;;;;;16.10;10.00;;;;;;;11.16;100.00;101512.13;5099592;28;20047;-80
2023/05/06 03:48:12;;;;;;;18.50;10.77;;;;;;;11.16;100.00;101502.91;5104557;28;20034;-81
2023/05/06 03:50:38;;;;;;;16.70;9.20;;;;;;;11.09;100.00;101500.78;5111054;28;20503;-81
2023/05/06 03:53:04;;;;;;;16.52;9.38;;;;;;;11.08;100.00;101487.94;5103155;28;20407;-81
2023/05/06 03:55:29;;;;;;;14.95;9.02;;;;;;;11.12;100.00;101491.63;5084614;28;20422;-81
2023/05/06 03:57:55;;;;;;;16.45;9.07;;;;;;;11.10;100.00;101491.16;5099818;28;20536;-80
2023/05/06 04:00:20;;;;;;;16.75;10.25;;;;;;;11.12;100.00;101486.00;5080682;28;20046;-80
2023/05/06 04:02:46;;;;;;;15.00;9.50;;;;;;;11.11;100.00;101487.22;5103875;28;20068;-80
2023/05/06 04:05:11;;;;;;;16.63;10.65;;;;;;;11.12;100.00;101491.63;5082310;28;20028;-81
2023/05/06 04:07:36;;;;;;;19.92;10.52;;;;;;;11.07;100.00;101483.50;5088992;28;20466;-80
2023/05/06 04:10:02;;;;;;;21.25;10.90;;;;;;;11.04;100.00;101489.84;5080284;28;20027;-80
2023/05/06 04:12:27;;;;;;;17.77;10.65;;;;;;;11.07;100.00;101491.91;5076906;28;20092;-80
2023/05/06 04:14:53;;;;;;;18.05;11.10;;;;;;;11.05;100.00;101488.66;5086901;27;20092;-80
2023/05/06 04:17:18;;;;;;;19.48;12.38;;;;;;;11.08;100.00;101492.72;5087132;28;20027;-81
2023/05/06 04:19:44;;;;;;;23.55;13.20;;;;;;;11.04;100.00;101489.84;5084994;28;20035;-81
2023/05/06 04:22:09;;;;;;;21.27;10.95;;;;;;;11.03;100.00;101491.03;5104815;28;20054;-81
2023/05/06 04:24:35;;;;;;;23.67;11.95;;;;;;;11.01;100.00;101489.78;5076157;28;20039;-80
2023/05/06 04:27:01;;;;;;;19.25;11.88;;;;;;;11.07;100.00;101500.31;5094076;28;20024;-80
2023/05/06 04:29:27;;;;;;;19.45;12.27;;;;;;;11.04;100.00;101489.84;5079018;28;20503;-80
2023/05/06 04:31:55;;;;;;;21.17;12.35;;;;;;;11.01;100.00;101496.19;5089884;28;20032;-81
2023/05/06 04:34:21;;;;;;;18.67;11.77;;;;;;;10.97;100.00;101498.09;5094096;28;20084;-81
2023/05/06 04:36:46;;;;;;;20.85;12.10;;;;;;;10.98;100.00;101510.91;5098358;28;20063;-80
2023/05/06 04:39:13;;;;;;;22.92;12.40;;;;;;;11.01;100.00;101507.38;5081456;28;20024;-81
2023/05/06 04:41:38;;;;;;;18.27;10.77;;;;;;;10.95;100.00;101512.44;5079892;28;20039;-80
2023/05/06 04:44:03;;;;;;;25.50;13.10;;;;;;;11.04;100.00;101511.44;5098489;28;20032;-80
2023/05/06 04:46:29;;;;;;;22.63;12.77;;;;;;;11.04;100.00;101512.25;5075605;28;20058;-80
2023/05/06 04:48:55;;;;;;;21.80;12.80;;;;;;;11.02;100.00;101505.38;5077448;28;20028;-81
2023/05/06 04:51:21;;;;;;;24.58;12.68;;;;;;;10.96;100.00;101511.28;5088123;28;20109;-80
2023/05/06 04:53:46;;;;;;;29.15;14.57;;;;;;;11.02;100.00;101514.59;5082200;28;20162;-80
2023/05/06 04:56:11;;;;;;;24.20;13.27;;;;;;;11.01;100.00;101512.19;5079495;28;20032;-80
2023/05/06 04:58:40;;;;;;;24.17;14.25;;;;;;;11.01;100.00;101513.00;5080664;28;20023;-80
2023/05/06 05:01:07;;;;;;;24.38;12.52;;;;;;;11.04;100.00;101520.66;5081227;28;20054;-81
2023/05/06 05:03:33;;;;;;;23.55;12.60;;;;;;;10.98;100.00;101524.91;5080906;28;20032;-80
2023/05/06 05:05:58;;;;;;;22.08;14.27;;;;;;;11.01;100.00;101518.59;5074751;28;20038;-80
2023/05/06 05:08:24;;;;;;;23.35;13.20;;;;;;;10.96;100.00;101528.09;5096866;28;20672;-80
2023/05/06 05:10:49;;;;;;;19.80;12.80;;;;;;;10.98;100.00;101519.31;5076435;28;20020;-80
2023/05/06 05:13:14;;;;;;;21.60;12.48;;;;;;;11.06;100.00;101526.69;5098614;27;20142;-81
2023/05/06 05:15:40;;;;;;;18.88;11.57;;;;;;;11.07;100.00;101519.94;5099633;27;20035;-80
2023/05/06 05:18:05;;;;;;;16.73;10.73;;;;;;;11.07;100.00;101516.28;5082988;28;20438;-80
2023/05/06 05:20:30;;;;;;;20.27;11.55;;;;;;;11.11;100.00;101537.63;5099584;28;20028;-80
2023/05/06 05:22:56;;;;;;;21.75;13.02;;;;;;;11.14;100.00;101533.28;5081988;28;20028;-81
2023/05/06 05:25:22;;;;;;;19.48;11.50;;;;;;;11.15;100.00;101540.50;5101284;28;21531;-80
2023/05/06 05:27:47;;;;;;;18.30;11.10;;;;;;;11.12;100.00;101542.06;5102491;28;20039;-80
2023/05/06 05:30:12;;;;;;;21.48;13.57;;;;;;;11.06;100.00;101546.31;5100574;28;20544;-80
2023/05/06 05:32:38;;;;;;;20.88;12.32;;;;;;;11.08;100.00;101548.75;5078591;28;20485;-81
2023/05/06 05:35:04;;;;;;;20.77;13.77;;;;;;;11.14;100.00;101553.72;5098473;28;20152;-80
2023/05/06 05:37:30;;;;;;;22.60;13.63;;;;;;;11.13;100.00;101570.88;5100495;28;20039;-80
2023/05/06 05:39:56;;;;;;;23.75;13.98;;;;;;;11.24;100.00;101571.94;5105282;28;20548;-80
2023/05/06 05:42:21;;;;;;;21.27;11.88;;;;;;;11.25;100.00;101558.75;5098231;28;20130;-80
2023/05/06 05:44:47;;;;;;;23.67;13.77;;;;;;;11.38;100.00;101566.66;5101015;28;20513;-80
2023/05/06 05:47:12;;;;;;;21.20;12.52;;;;;;;11.43;100.00;101573.97;5100440;28;20036;-81
2023/05/06 05:49:37;;;;;;;24.98;13.10;;;;;;;11.49;100.00;101578.13;5079319;28;20030;-80
2023/05/06 05:52:03;;;;;;;22.50;13.70;;;;;;;11.47;100.00;101574.88;5080677;28;20031;-80
2023/05/06 05:54:28;;;;;;;23.65;13.80;;;;;;;11.39;100.00;101562.69;5103695;28;20107;-80
2023/05/06 05:56:54;;;;;;;25.15;13.48;;;;;;;11.47;100.00;101566.47;5100452;28;20416;-80
2023/05/06 05:59:19;;;;;;;26.80;15.82;;;;;;;11.47;100.00;101563.66;5099130;28;20090;-80
2023/05/06 06:01:44;;;;;;;30.48;17.30;;;;;;;11.31;100.00;101560.09;5078585;28;20023;-80
2023/05/06 06:04:10;;;;;;;28.23;15.50;;;;;;;11.38;100.00;101565.84;5088583;27;20500;-80
2023/05/06 06:06:35;;;;;;;25.45;15.50;;;;;;;11.53;100.00;101564.16;5079684;28;20027;-80
2023/05/06 06:09:00;;;;;;;27.60;15.63;;;;;;;11.52;100.00;101566.16;5074174;28;20155;-80
2023/05/06 06:11:26;;;;;;;27.27;14.95;;;;;;;11.55;100.00;101568.25;5075728;28;20055;-80
2023/05/06 06:13:51;;;;;;;28.33;16.27;;;;;;;11.56;100.00;101569.84;5075578;28;20038;-80
2023/05/06 06:16:17;;;;;;;34.72;20.30;;;;;;;11.34;100.00;101565.78;5090367;28;20496;-80
2023/05/06 06:18:42;;;;;;;35.15;19.05;;;;;;;11.26;100.00;101568.75;5096975;28;20047;-80
2023/05/06 06:21:07;;;;;;;25.35;15.02;;;;;;;11.21;100.00;101574.66;5075222;28;20027;-80
2023/05/06 06:23:33;;;;;;;37.47;19.38;;;;;;;11.37;100.00;101576.25;5080139;28;20164;-80
2023/05/06 06:25:58;;;;;;;35.88;19.00;;;;;;;11.47;100.00;101579.63;5098652;28;20118;-80
2023/05/06 06:28:25;;;;;;;35.22;20.75;;;;;;;11.37;100.00;101579.03;5094526;28;20038;-80
2023/05/06 06:30:50;;;;;;;32.22;17.83;;;;;;;11.42;100.00;101575.13;5093798;28;20032;-80
2023/05/06 06:33:15;;;;;;;40.00;20.13;;;;;;;11.42;100.00;101575.13;5092358;28;20077;-80
2023/05/06 06:35:41;;;;;;;36.60;19.92;;;;;;;11.47;100.00;101574.03;5076847;28;20058;-80
2023/05/06 06:38:06;;;;;;;34.60;19.38;;;;;;;11.48;100.00;101579.28;5096244;28;20555;-81
2023/05/06 06:40:31;;;;;;;40.60;19.77;;;;;;;11.44;100.00;101569.97;5079537;28;20028;-80
2023/05/06 06:42:57;;;;;;;32.25;17.63;;;;;;;11.64;100.00;101572.78;5092940;28;20039;-80
2023/05/06 06:45:22;;;;;;;39.08;20.67;;;;;;;11.54;100.00;101580.63;5096131;28;20053;-80
2023/05/06 06:47:48;;;;;;;38.10;20.13;;;;;;;11.65;100.00;101571.63;5075354;28;20651;-80
2023/05/06 06:50:13;;;;;;;35.80;19.73;;;;;;;11.68;100.00;101579.28;5093025;28;20059;-80
2023/05/06 06:52:39;;;;;;;36.88;20.23;;;;;;;11.70;100.00;101576.94;5074613;28;20067;-80
2023/05/06 06:55:05;;;;;;;36.70;18.25;;;;;;;11.72;100.00;101580.19;5094953;28;20050;-80
2023/05/06 06:57:30;;;;;;;33.08;18.58;;;;;;;11.65;100.00;101585.66;5095227;28;20034;-80
2023/05/06 06:59:55;;;;;;;37.92;19.58;;;;;;;11.53;100.00;101583.78;5101722;28;20032;-80
2023/05/06 07:02:21;;;;;;;36.80;20.30;;;;;;;11.54;100.00;101591.84;5104682;27;20027;-80
2023/05/06 07:04:47;;;;;;;34.33;20.25;;;;;;;11.53;100.00;101589.38;5104986;27;20519;-80
2023/05/06 07:07:12;;;;;;;34.22;18.30;;;;;;;11.62;100.00;101587.19;5081133;28;20069;-80
2023/05/06 07:09:38;;;;;;;31.85;18.60;;;;;;;11.69;100.00;101583.72;5067810;28;20755;-80
2023/05/06 07:12:05;;;;;;;35.10;17.83;;;;;;;11.57;100.00;101591.13;5079804;28;20110;-81
2023/05/06 07:14:31;;;;;;;34.50;18.45;;;;;;;11.53;100.00;101592.19;5080785;28;20481;-80
2023/05/06 07:16:56;;;;;;;33.40;18.48;;;;;;;11.62;100.00;101583.59;5085540;28;20027;-80
2023/05/06 07:19:22;;;;;;;32.42;18.58;;;;;;;11.72;100.00;101589.44;5100005;27;20031;-80
2023/05/06 07:21:47;;;;;;;31.33;18.95;;;;;;;11.74;100.00;101589.03;5084764;28;20680;-80
2023/05/06 07:24:12;;;;;;;33.83;20.13;;;;;;;11.74;100.00;101587.06;5080349;28;20400;-80
2023/05/06 07:26:38;;;;;;;34.30;18.63;;;;;;;11.65;100.00;101589.25;5077780;28;20120;-81
2023/05/06 07:29:04;;;;;;;36.53;20.67;;;;;;;11.78;100.00;101595.53;5080174;28;20031;-80
2023/05/06 07:31:32;;;;;;;35.33;19.63;;;;;;;11.82;100.00;101602.03;5081852;28;20032;-80
2023/05/06 07:33:58;;;;;;;38.45;20.27;;;;;;;11.96;100.00;101598.75;5086410;28;20080;-80
2023/05/06 07:36:25;;;;;;;32.80;18.92;;;;;;;11.99;100.00;101601.63;5093420;28;20047;-80
2023/05/06 07:38:51;;;;;;;38.97;21.42;;;;;;;12.05;100.00;101595.72;5078229;27;20480;-80
2023/05/06 07:41:16;;;;;;;37.53;20.20;;;;;;;12.17;100.00;101598.34;5098106;27;20026;-80
2023/05/06 07:43:41;;;;;;;48.80;20.83;;;;;;;12.19;100.00;101593.19;5075352;28;20127;-80
2023/05/06 07:46:07;;;;;;;39.67;21.83;;;;;;;12.22;100.00;101598.03;5097985;27;20489;-80
2023/05/06 07:48:32;;;;;;;42.33;22.65;;;;;;;12.24;100.00;101595.69;5098003;28;20131;-80
2023/05/06 07:50:58;;;;;;;43.75;22.08;;;;;;;12.32;100.00;101597.44;5081258;28;20073;-79
2023/05/06 07:53:24;;;;;;;41.97;21.20;;;;;;;12.38;100.00;101601.56;5079939;28;20073;-80
2023/05/06 07:55:51;;;;;;;38.53;21.50;;;;;;;12.47;100.00;101611.75;5079851;28;20036;-80
2023/05/06 07:58:17;;;;;;;42.58;23.45;;;;;;;12.56;100.00;101615.09;5078647;27;20035;-80
2023/05/06 08:00:42;;;;;;;44.25;22.90;;;;;;;12.49;100.00;101612.19;5084721;28;20031;-80
2023/05/06 08:03:07;;;;;;;47.13;23.48;;;;;;;12.47;100.00;101598.50;5097798;27;20032;-80
2023/05/06 08:05:33;;;;;;;53.75;27.23;;;;;;;12.68;100.00;101606.50;5077037;28;20467;-80
2023/05/06 08:07:59;;;;;;;51.58;26.25;;;;;;;12.75;100.00;101601.00;5090750;27;20679;-79
2023/05/06 08:10:24;;;;;;;49.28;26.33;;;;;;;12.69;100.00;101610.94;5099170;27;20023;-79
2023/05/06 08:12:49;;;;;;;49.95;26.00;;;;;;;12.84;100.00;101602.75;5085333;27;20529;-79
2023/05/06 08:15:15;;;;;;;49.53;25.58;;;;;;;12.85;100.00;101612.81;5097405;27;20031;-77
2023/05/06 08:17:40;;;;;;;52.85;26.15;;;;;;;12.90;100.00;101615.28;5106372;27;20111;-77
2023/05/06 08:20:06;;;;;;;48.55;27.33;;;;;;;13.02;100.00;101612.28;5101211;27;20024;-77
2023/05/06 08:22:32;;;;;;;48.88;24.52;;;;;;;13.17;100.00;101619.75;5099900;27;20100;-78
2023/05/06 08:24:57;;;;;;;47.63;26.58;;;;;;;13.28;100.00;101616.28;5104858;27;20457;-77
2023/05/06 08:27:23;;;;;;;49.42;26.20;;;;;;;13.44;100.00;101619.78;5081200;28;20031;-77
2023/05/06 08:29:48;;;;;;;46.28;25.77;;;;;;;13.56;100.00;101616.75;5075251;28;20055;-77
2023/05/06 08:32:14;;;;;;;49.88;25.80;;;;;;;13.76;100.00;101622.22;5080132;27;20051;-77
2023/05/06 08:34:39;;;;;;;45.28;25.10;;;;;;;13.87;100.00;101623.19;5099152;27;20171;-77
2023/05/06 08:37:05;;;;;;;41.42;23.55;;;;;;;13.73;100.00;101628.63;5083545;28;20040;-78
2023/05/06 08:39:30;;;;;;;43.55;24.38;;;;;;;13.87;100.00;101622.38;5080232;28;20426;-78
2023/05/06 08:41:58;;;;;;;43.00;23.33;;;;;;;13.98;100.00;101629.75;5079833;28;20016;-79
2023/05/06 08:44:24;;;;;;;47.60;24.30;;;;;;;13.98;100.00;101626.94;5078356;28;20036;-76
2023/05/06 08:46:49;;;;;;;47.67;25.95;;;;;;;14.18;100.00;101621.13;5074276;28;20634;-76
2023/05/06 08:49:15;;;;;;;51.72;30.20;;;;;;;14.12;100.00;101622.66;5078481;28;20032;-76
2023/05/06 08:51:43;;;;;;;50.42;27.50;;;;;;;14.33;100.00;101620.09;5072049;28;20028;-76
2023/05/06 08:54:10;;;;;;;50.35;28.30;;;;;;;14.29;100.00;101624.88;5077864;28;20028;-76
2023/05/06 08:56:37;;;;;;;53.33;26.85;;;;;;;14.57;100.00;101623.59;5067261;28;20031;-76
2023/05/06 08:59:03;;;;;;;53.30;28.23;;;;;;;14.58;100.00;101616.75;5075454;28;20047;-76
2023/05/06 09:01:28;;;;;;;49.38;27.58;;;;;;;14.64;100.00;101626.47;5078864;28;20262;-77
2023/05/06 09:03:58;;;;;;;49.67;26.10;;;;;;;14.60;100.00;101620.78;5075248;28;20472;-77
2023/05/06 09:06:24;;;;;;;46.63;25.67;;;;;;;14.88;100.00;101624.28;5073086;28;20043;-77
2023/05/06 09:08:49;;;;;;;51.10;26.38;;;;;;;14.91;100.00;101629.16;5073804;28;20024;-76
2023/05/06 09:11:28;;;;;;;47.08;26.83;;;;;;;15.00;100.00;101613.50;5078295;28;20028;-76
2023/05/06 09:14:11;;;;;;;47.45;28.27;;;;;;;15.02;100.00;101613.91;5071995;28;20031;-76
2023/05/06 09:16:38;;;;;;;47.80;25.52;;;;;;;15.15;100.00;101622.06;5075756;28;20378;-76
2023/05/06 09:19:03;;;;;;;48.88;27.45;;;;;;;15.00;100.00;101621.16;5094715;28;20031;-77
2023/05/06 09:21:43;;;;;;;45.90;26.35;;;;;;;15.00;100.00;101610.69;5077332;28;20434;-76
2023/05/06 09:24:10;;;;;;;48.15;26.95;;;;;;;15.23;100.00;101616.09;5078346;28;20456;-77
2023/05/06 09:26:37;;;;;;;51.42;26.98;;;;;;;15.38;100.00;101621.84;5084540;28;20081;-77
2023/05/06 09:29:03;;;;;;;44.55;25.02;;;;;;;15.31;100.00;101613.34;5083188;28;20103;-76
2023/05/06 09:31:29;;;;;;;46.60;27.40;;;;;;;15.52;100.00;101607.81;5076326;28;20044;-77
2023/05/06 09:33:57;;;;;;;51.10;27.65;;;;;;;16.08;100.00;101604.88;5081085;28;20024;-76
2023/05/06 09:36:25;;;;;;;45.45;26.00;;;;;;;16.07;100.00;101609.72;5080943;28;20055;-76
2023/05/06 09:38:52;;;;;;;44.08;23.98;;;;;;;16.00;100.00;101610.50;5075921;28;20122;-76
2023/05/06 09:41:19;;;;;;;41.63;21.45;;;;;;;16.39;100.00;101603.34;5100806;28;20024;-76
2023/05/06 09:43:47;;;;;;;44.55;25.90;;;;;;;16.30;100.00;101600.91;5079890;28;20047;-77
2023/05/06 09:46:14;;;;;;;44.80;26.67;;;;;;;16.61;100.00;101596.50;5094599;28;20031;-77
2023/05/06 09:48:40;;;;;;;47.22;23.23;;;;;;;16.74;100.00;101601.75;5080479;28;20028;-77
2023/05/06 09:51:06;;;;;;;40.67;22.75;;;;;;;16.74;100.00;101599.75;5094611;28;20033;-76
2023/05/06 09:53:34;;;;;;;41.65;22.83;;;;;;;16.94;100.00;101593.72;5075235;28;20040;-76
2023/05/06 09:56:01;;;;;;;36.95;21.52;;;;;;;17.27;100.00;101590.44;5097991;28;20366;-77
2023/05/06 09:58:30;;;;;;;43.35;23.30;;;;;;;17.57;100.00;101594.81;5095021;28;20056;-76
2023/05/06 10:00:56;;;;;;;40.53;20.88;;;;;;;17.57;100.00;101586.31;5096598;28;20544;-77
2023/05/06 10:03:23;;;;;;;35.53;21.20;;;;;;;17.62;100.00;101594.38;5103784;28;20115;-77
2023/05/06 10:05:49;;;;;;;33.25;18.65;;;;;;;17.94;100.00;101593.50;5099755;28;20175;-77
2023/05/06 10:08:17;;;;;;;32.85;16.55;;;;;;;17.64;100.00;101586.28;5095400;28;20204;-78
2023/05/06 10:10:46;;;;;;;30.45;15.40;;;;;;;17.63;100.00;101590.34;5088826;28;21160;-77
2023/05/06 10:13:12;;;;;;;26.77;16.50;;;;;;;17.74;100.00;101590.31;5077611;28;20105;-77
2023/05/06 10:15:38;;;;;;;29.02;15.80;;;;;;;18.44;100.00;101590.34;5091620;27;20477;-78
2023/05/06 10:18:08;;;;;;;26.70;15.40;;;;;;;18.64;100.00;101584.97;5081772;28;20389;-78
2023/05/06 10:20:35;;;;;;;26.48;14.95;;;;;;;18.49;97.69;101587.09;5097352;27;20020;-76
2023/05/06 10:23:28;;;;;;;28.30;13.20;;;;;;;18.42;96.38;101577.84;5094777;27;20135;-77
2023/05/06 10:25:59;;;;;;;;;;;;;;;18.28;93.62;101581.59;5103998;27;20179;-77
2023/05/06 10:28:26;;;;;;;20.83;10.23;;;;;;;18.63;92.11;101574.03;5097329;27;19916;-77
2023/05/06 10:30:52;;;;;;;24.35;11.95;;;;;;;18.66;90.23;101571.19;5092708;28;20028;-77
2023/05/06 10:33:21;;;;;;;21.95;9.60;;;;;;;18.59;91.13;101576.09;5080043;28;20454;-83
2023/05/06 10:36:13;;;;;;;39.65;14.60;;;;;;;18.16;91.91;101582.06;5080896;28;20576;-82
2023/05/06 10:38:44;;;;;;;33.13;12.32;;;;;;;17.81;93.73;101590.25;5065889;28;20035;-79
2023/05/06 10:41:12;;;;;;;27.83;10.20;;;;;;;17.79;95.50;101595.56;5080161;28;20020;-79
2023/05/06 10:43:42;;;;;;;40.30;15.30;;;;;;;17.49;98.05;101593.22;5100450;28;20609;-78
2023/05/06 10:46:13;;;;;;;40.72;14.75;;;;;;;17.62;97.88;101574.56;5098511;28;20142;-79
2023/05/06 10:49:05;;;;;;;23.33;11.85;;;;;;;17.51;97.98;101573.00;5081027;28;20415;-80
2023/05/06 10:51:35;;;;;;;47.13;15.60;;;;;;;17.44;97.19;101585.16;5105214;28;20030;-80
2023/05/06 10:54:16;;;;;;;26.58;12.45;;;;;;;17.43;98.26;101575.88;5074723;28;20031;-80
2023/05/06 10:56:48;;;;;;;36.42;13.45;;;;;;;17.38;97.97;101578.28;5092783;28;20028;-79
2023/05/06 10:59:19;;;;;;;45.90;16.90;;;;;;;17.32;99.34;101585.59;5080891;28;20031;-82
2023/05/06 11:01:53;;;;;;;48.92;14.52;;;;;;;17.06;100.00;101579.97;5079269;28;20402;-80
2023/05/06 11:04:19;;;;;;;41.53;15.75;;;;;;;17.03;100.00;101577.97;5093537;28;20119;-80